createdAt,value
2016-12-03T00:00:21.270Z,1020.5
2016-12-03T00:01:32.457Z,1020.52
2016-12-03T00:02:43.435Z,1020.49
2016-12-03T00:03:54.498Z,1020.47
2016-12-03T00:05:05.499Z,1020.44
2016-12-03T00:06:16.678Z,1020.44
2016-12-03T00:07:27.656Z,1020.43
2016-12-03T00:08:38.632Z,1020.38
2016-12-03T00:09:49.662Z,1020.38
2016-12-03T00:11:00.843Z,1020.43
2016-12-03T00:12:11.829Z,1020.43
2016-12-03T00:13:22.809Z,1020.48
2016-12-03T00:14:33.991Z,1020.41
2016-12-03T00:15:45.027Z,1020.45
2016-12-03T00:16:56.012Z,1020.42
2016-12-03T00:18:07.404Z,1020.46
2016-12-03T00:19:18.397Z,1020.44
2016-12-03T00:20:29.380Z,1020.44
2016-12-03T00:21:40.418Z,1020.45
2016-12-03T00:22:51.402Z,1020.46
2016-12-03T00:24:02.377Z,1020.43
2016-12-03T00:25:13.361Z,1020.43
2016-12-03T00:26:24.335Z,1020.44
2016-12-03T00:27:35.570Z,1020.45
2016-12-03T00:28:46.556Z,1020.46
2016-12-03T00:29:57.542Z,1020.43
2016-12-03T00:31:08.523Z,1020.46
2016-12-03T00:32:19.702Z,1020.46
2016-12-03T00:33:30.727Z,1020.54
2016-12-03T00:34:41.706Z,1020.49
2016-12-03T00:35:52.687Z,1020.42
2016-12-03T00:37:03.661Z,1020.45
2016-12-03T00:38:14.848Z,1020.42
2016-12-03T00:39:25.879Z,1020.44
2016-12-03T00:40:36.860Z,1020.43
2016-12-03T00:41:48.035Z,1020.43
2016-12-03T00:42:59.010Z,1020.43
2016-12-03T00:44:09.996Z,1020.45
2016-12-03T00:45:21.050Z,1020.48
2016-12-03T00:46:32.028Z,1020.47
2016-12-03T00:47:43.024Z,1020.48
2016-12-03T00:48:54.011Z,1020.49
2016-12-03T00:50:04.992Z,1020.45
2016-12-03T00:51:16.230Z,1020.42
2016-12-03T00:52:27.218Z,1020.44
2016-12-03T00:53:38.812Z,1020.43
2016-12-03T00:54:50.198Z,1020.41
2016-12-03T00:56:01.182Z,1020.4
2016-12-03T00:57:12.220Z,1020.37
2016-12-03T00:58:23.402Z,1020.4
2016-12-03T00:59:34.376Z,1020.45
2016-12-03T01:00:45.359Z,1020.44
2016-12-03T01:01:56.538Z,1020.43
2016-12-03T01:03:07.574Z,1020.44
2016-12-03T01:04:18.550Z,1020.44
2016-12-03T01:05:29.531Z,1020.44
2016-12-03T01:06:40.504Z,1020.43
2016-12-03T01:07:51.686Z,1020.44
2016-12-03T01:09:02.752Z,1020.45
2016-12-03T01:10:13.734Z,1020.43
2016-12-03T01:11:24.722Z,1020.41
2016-12-03T01:12:35.709Z,1020.32
2016-12-03T01:13:46.705Z,1020.37
2016-12-03T01:14:57.934Z,1020.43
2016-12-03T01:16:08.915Z,1020.42
2016-12-03T01:17:19.903Z,1020.41
2016-12-03T01:18:30.916Z,1020.38
2016-12-03T01:19:41.902Z,1020.38
2016-12-03T01:20:52.938Z,1020.39
2016-12-03T01:22:03.937Z,1020.37
2016-12-03T01:23:14.929Z,1020.37
2016-12-03T01:24:25.912Z,1020.37
2016-12-03T01:25:37.094Z,1020.41
2016-12-03T01:26:48.332Z,1020.41
2016-12-03T01:27:59.310Z,1020.43
2016-12-03T01:29:10.294Z,1020.46
2016-12-03T01:30:21.278Z,1020.44
2016-12-03T01:31:32.262Z,1020.43
2016-12-03T01:32:43.500Z,1020.42
2016-12-03T01:33:54.476Z,1020.44
2016-12-03T01:35:05.670Z,1020.43
2016-12-03T01:36:16.647Z,1020.42
2016-12-03T01:37:27.624Z,1020.36
2016-12-03T01:38:38.650Z,1020.42
2016-12-03T01:39:49.633Z,1020.41
2016-12-03T01:41:00.622Z,1020.38
2016-12-03T01:42:11.804Z,1020.46
2016-12-03T01:43:22.786Z,1020.43
2016-12-03T01:44:33.821Z,1020.44
2016-12-03T01:45:44.799Z,1020.44
2016-12-03T01:46:56.008Z,1020.46
2016-12-03T01:48:07.187Z,1020.46
2016-12-03T01:49:18.170Z,1020.46
2016-12-03T01:50:29.203Z,1020.47
2016-12-03T01:51:40.391Z,1020.45
2016-12-03T01:52:51.370Z,1020.47
2016-12-03T01:54:02.355Z,1020.51
2016-12-03T01:55:13.374Z,1020.47
2016-12-03T01:56:24.617Z,1020.53
2016-12-03T01:57:35.599Z,1020.54
2016-12-03T01:58:46.591Z,1020.53
2016-12-03T01:59:57.767Z,1020.59
2016-12-03T02:01:08.746Z,1020.57
2016-12-03T02:02:19.772Z,1020.58
2016-12-03T02:03:30.752Z,1020.56
2016-12-03T02:04:41.737Z,1020.58
2016-12-03T02:05:52.919Z,1020.55
2016-12-03T02:07:03.907Z,1020.55
2016-12-03T02:08:14.936Z,1020.52
2016-12-03T02:09:25.937Z,1020.5
2016-12-03T02:10:36.922Z,1020.51
2016-12-03T02:11:47.931Z,1020.53
2016-12-03T02:12:58.911Z,1020.46
2016-12-03T02:14:09.934Z,1020.45
2016-12-03T02:15:20.922Z,1020.5
2016-12-03T02:16:32.104Z,1020.52
2016-12-03T02:17:43.085Z,1020.55
2016-12-03T02:18:54.074Z,1020.57
2016-12-03T02:20:05.098Z,1020.54
2016-12-03T02:21:16.076Z,1020.63
2016-12-03T02:22:27.060Z,1020.58
2016-12-03T02:23:38.040Z,1020.57
2016-12-03T02:24:49.013Z,1020.59
2016-12-03T02:26:00.071Z,1020.54
2016-12-03T02:27:11.065Z,1020.52
2016-12-03T02:28:22.251Z,1020.54
2016-12-03T02:29:33.229Z,1020.51
2016-12-03T02:30:44.611Z,1020.53
2016-12-03T02:31:55.652Z,1020.55
2016-12-03T02:33:06.637Z,1020.52
2016-12-03T02:34:17.620Z,1020.46
2016-12-03T02:35:28.598Z,1020.48
2016-12-03T02:36:39.799Z,1020.5
2016-12-03T02:37:50.827Z,1020.44
2016-12-03T02:39:01.814Z,1020.49
2016-12-03T02:40:12.798Z,1020.59
2016-12-03T02:41:23.778Z,1020.59
2016-12-03T02:42:34.960Z,1020.51
2016-12-03T02:43:45.993Z,1020.55
2016-12-03T02:44:56.976Z,1020.55
2016-12-03T02:46:08.159Z,1020.5
2016-12-03T02:47:19.340Z,1020.54
2016-12-03T02:48:30.319Z,1020.62
2016-12-03T02:49:41.350Z,1020.57
2016-12-03T02:50:52.530Z,1020.55
2016-12-03T02:52:03.522Z,1020.55
2016-12-03T02:53:14.509Z,1020.51
2016-12-03T02:54:25.485Z,1020.56
2016-12-03T02:55:36.513Z,1020.6
2016-12-03T02:56:47.500Z,1020.57
2016-12-03T02:57:58.489Z,1020.52
2016-12-03T02:59:09.474Z,1020.54
2016-12-03T03:00:20.662Z,1020.55
2016-12-03T03:01:31.695Z,1020.55
2016-12-03T03:02:42.678Z,1020.51
2016-12-03T03:03:53.662Z,1020.49
2016-12-03T03:05:04.645Z,1020.49
2016-12-03T03:06:15.632Z,1020.54
2016-12-03T03:07:26.703Z,1020.54
2016-12-03T03:08:37.686Z,1020.54
2016-12-03T03:09:48.670Z,1020.54
2016-12-03T03:10:59.654Z,1020.52
2016-12-03T03:12:10.840Z,1020.53
2016-12-03T03:13:21.866Z,1020.52
2016-12-03T03:14:32.847Z,1020.52
2016-12-03T03:15:43.833Z,1020.54
2016-12-03T03:16:54.819Z,1020.43
2016-12-03T03:18:05.801Z,1020.41
2016-12-03T03:19:16.833Z,1020.5
2016-12-03T03:20:27.820Z,1020.56
2016-12-03T03:21:38.802Z,1020.55
2016-12-03T03:22:49.787Z,1020.51
2016-12-03T03:24:00.771Z,1020.48
2016-12-03T03:25:12.012Z,1020.43
2016-12-03T03:26:22.994Z,1020.43
2016-12-03T03:27:33.982Z,1020.4
2016-12-03T03:28:44.962Z,1020.46
2016-12-03T03:29:55.941Z,1020.42
2016-12-03T03:31:06.971Z,1020.42
2016-12-03T03:32:17.956Z,1020.45
2016-12-03T03:33:28.936Z,1020.44
2016-12-03T03:34:39.906Z,1020.44
2016-12-03T03:35:50.894Z,1020.46
2016-12-03T03:37:01.937Z,1020.51
2016-12-03T03:38:12.918Z,1020.57
2016-12-03T03:39:24.094Z,1020.66
2016-12-03T03:40:35.473Z,1020.76
2016-12-03T03:41:46.455Z,1020.59
2016-12-03T03:42:57.484Z,1020.6
2016-12-03T03:44:08.462Z,1020.59
2016-12-03T03:45:19.445Z,1020.59
2016-12-03T03:46:30.633Z,1020.58
2016-12-03T03:47:41.615Z,1020.59
2016-12-03T03:48:52.646Z,1020.59
2016-12-03T03:50:03.624Z,1020.56
2016-12-03T03:51:14.604Z,1020.52
2016-12-03T03:52:25.583Z,1020.52
2016-12-03T03:53:36.572Z,1020.52
2016-12-03T03:54:47.633Z,1020.46
2016-12-03T03:55:58.611Z,1020.48
2016-12-03T03:57:09.591Z,1020.42
2016-12-03T03:58:20.566Z,1020.47
2016-12-03T03:59:31.563Z,1020.46
2016-12-03T04:00:42.796Z,1020.45
2016-12-03T04:01:53.800Z,1020.41
2016-12-03T04:03:04.777Z,1020.43
2016-12-03T04:04:15.757Z,1020.4
2016-12-03T04:05:26.939Z,1020.44
2016-12-03T04:06:37.970Z,1020.51
2016-12-03T04:07:48.948Z,1020.45
2016-12-03T04:08:59.936Z,1020.39
2016-12-03T04:10:10.910Z,1020.39
2016-12-03T04:11:21.892Z,1020.36
2016-12-03T04:12:32.914Z,1020.43
2016-12-03T04:13:43.894Z,1020.44
2016-12-03T04:14:55.081Z,1020.43
2016-12-03T04:16:06.062Z,1020.4
2016-12-03T04:17:17.044Z,1020.41
2016-12-03T04:18:28.281Z,1020.42
2016-12-03T04:19:39.263Z,1020.43
2016-12-03T04:20:50.246Z,1020.49
2016-12-03T04:22:01.248Z,1020.47
2016-12-03T04:23:12.236Z,1020.42
2016-12-03T04:24:23.466Z,1020.46
2016-12-03T04:25:34.444Z,1020.49
2016-12-03T04:26:45.422Z,1020.5
2016-12-03T04:27:56.602Z,1020.53
2016-12-03T04:29:07.582Z,1020.48
2016-12-03T04:30:18.613Z,1020.47
2016-12-03T04:31:29.592Z,1020.46
2016-12-03T04:32:40.576Z,1020.49
2016-12-03T04:33:51.560Z,1020.51
2016-12-03T04:35:02.542Z,1020.48
2016-12-03T04:36:13.781Z,1020.49
2016-12-03T04:37:24.957Z,1020.48
2016-12-03T04:38:35.941Z,1020.45
2016-12-03T04:39:46.928Z,1020.45
2016-12-03T04:40:57.914Z,1020.47
2016-12-03T04:42:09.138Z,1020.48
2016-12-03T04:43:20.117Z,1020.43
2016-12-03T04:44:31.103Z,1020.47
2016-12-03T04:45:42.079Z,1020.5
2016-12-03T04:46:53.056Z,1020.5
2016-12-03T04:48:04.088Z,1020.48
2016-12-03T04:49:15.274Z,1020.48
2016-12-03T04:50:26.253Z,1020.47
2016-12-03T04:51:37.238Z,1020.48
2016-12-03T04:52:48.214Z,1020.5
2016-12-03T04:53:59.252Z,1020.48
2016-12-03T04:55:10.460Z,1020.54
2016-12-03T04:56:21.444Z,1020.59
2016-12-03T04:57:32.419Z,1020.54
2016-12-03T04:58:43.394Z,1020.49
2016-12-03T04:59:54.433Z,1020.5
2016-12-03T05:01:05.411Z,1020.48
2016-12-03T05:02:16.390Z,1020.46
2016-12-03T05:03:27.368Z,1020.46
2016-12-03T05:04:38.355Z,1020.51
2016-12-03T05:05:49.591Z,1020.49
2016-12-03T05:07:00.577Z,1020.5
2016-12-03T05:08:11.560Z,1020.54
2016-12-03T05:09:22.567Z,1020.57
2016-12-03T05:10:33.550Z,1020.54
2016-12-03T05:11:44.584Z,1020.57
2016-12-03T05:12:55.571Z,1020.59
2016-12-03T05:14:06.548Z,1020.62
2016-12-03T05:15:17.534Z,1020.69
2016-12-03T05:16:28.718Z,1020.68
2016-12-03T05:17:39.743Z,1020.69
2016-12-03T05:18:50.723Z,1020.72
2016-12-03T05:20:01.704Z,1020.78
2016-12-03T05:21:12.678Z,1020.79
2016-12-03T05:22:23.653Z,1020.8
2016-12-03T05:23:34.681Z,1020.85
2016-12-03T05:24:45.687Z,1020.88
2016-12-03T05:25:56.670Z,1020.85
2016-12-03T05:27:07.658Z,1020.86
2016-12-03T05:28:18.839Z,1020.85
2016-12-03T05:29:29.871Z,1020.85
2016-12-03T05:30:40.862Z,1020.89
2016-12-03T05:31:51.877Z,1020.9
2016-12-03T05:33:03.059Z,1020.93
2016-12-03T05:34:14.032Z,1020.9
2016-12-03T05:35:25.064Z,1020.91
2016-12-03T05:36:36.051Z,1020.86
2016-12-03T05:37:47.055Z,1020.9
2016-12-03T05:38:58.035Z,1020.92
2016-12-03T05:40:09.019Z,1020.86
2016-12-03T05:41:20.042Z,1020.92
2016-12-03T05:42:31.033Z,1020.92
2016-12-03T05:43:42.011Z,1020.97
2016-12-03T05:44:52.987Z,1020.96
2016-12-03T05:46:03.967Z,1020.97
2016-12-03T05:47:14.996Z,1020.97
2016-12-03T05:48:26.175Z,1021.01
2016-12-03T05:49:37.150Z,1021.04
2016-12-03T05:50:48.137Z,1021
2016-12-03T05:51:59.124Z,1021.05
2016-12-03T05:53:10.156Z,1021.04
2016-12-03T05:54:21.137Z,1021.04
2016-12-03T05:55:32.116Z,1021.08
2016-12-03T05:56:43.100Z,1021.04
2016-12-03T05:57:54.077Z,1021.04
2016-12-03T05:59:05.111Z,1021.05
2016-12-03T06:00:16.086Z,1021.06
2016-12-03T06:01:27.271Z,1021.08
2016-12-03T06:02:38.256Z,1021.05
2016-12-03T06:03:49.237Z,1021.01
2016-12-03T06:05:00.262Z,1021.08
2016-12-03T06:06:11.243Z,1021.06
2016-12-03T06:07:22.228Z,1021.03
2016-12-03T06:08:33.213Z,1020.98
2016-12-03T06:09:44.190Z,1020.96
2016-12-03T06:10:55.218Z,1020.98
2016-12-03T06:12:06.200Z,1021.01
2016-12-03T06:13:17.192Z,1021.02
2016-12-03T06:14:28.175Z,1021.04
2016-12-03T06:15:39.155Z,1021.04
2016-12-03T06:16:50.180Z,1021.08
2016-12-03T06:18:01.164Z,1021.07
2016-12-03T06:19:12.147Z,1021.11
2016-12-03T06:20:23.123Z,1021.06
2016-12-03T06:21:34.126Z,1021.11
2016-12-03T06:22:45.378Z,1021.1
2016-12-03T06:23:56.354Z,1021.13
2016-12-03T06:25:07.330Z,1021.14
2016-12-03T06:26:18.552Z,1021.15
2016-12-03T06:27:29.536Z,1021.17
2016-12-03T06:28:40.564Z,1021.13
2016-12-03T06:29:51.554Z,1021.16
2016-12-03T06:31:02.530Z,1021.2
2016-12-03T06:32:13.510Z,1021.16
2016-12-03T06:33:24.691Z,1021.18
2016-12-03T06:34:35.722Z,1021.21
2016-12-03T06:35:46.700Z,1021.18
2016-12-03T06:36:57.684Z,1021.18
2016-12-03T06:38:08.657Z,1021.15
2016-12-03T06:39:19.634Z,1021.17
2016-12-03T06:40:30.662Z,1021.21
2016-12-03T06:41:41.855Z,1021.21
2016-12-03T06:42:52.829Z,1021.17
2016-12-03T06:44:04.011Z,1021.18
2016-12-03T06:45:15.189Z,1021.14
2016-12-03T06:46:26.165Z,1021.15
2016-12-03T06:47:37.131Z,1021.15
2016-12-03T06:48:48.111Z,1021.18
2016-12-03T06:49:59.098Z,1021.17
2016-12-03T06:51:10.126Z,1021.16
2016-12-03T06:52:21.113Z,1021.15
2016-12-03T06:53:32.091Z,1021.14
2016-12-03T06:54:43.275Z,1021.21
2016-12-03T06:55:54.265Z,1021.21
2016-12-03T06:57:05.290Z,1021.16
2016-12-03T06:58:16.469Z,1021.16
2016-12-03T06:59:27.464Z,1021.17
2016-12-03T07:00:38.444Z,1021.22
2016-12-03T07:01:49.421Z,1021.23
2016-12-03T07:03:00.657Z,1021.22
2016-12-03T07:04:11.635Z,1021.23
2016-12-03T07:05:22.818Z,1021.22
2016-12-03T07:06:34.016Z,1021.26
2016-12-03T07:07:44.998Z,1021.32
2016-12-03T07:08:55.982Z,1021.32
2016-12-03T07:10:06.964Z,1021.28
2016-12-03T07:11:17.938Z,1021.29
2016-12-03T07:12:28.917Z,1021.26
2016-12-03T07:13:39.891Z,1021.3
2016-12-03T07:14:50.873Z,1021.33
2016-12-03T07:16:01.846Z,1021.36
2016-12-03T07:17:12.823Z,1021.34
2016-12-03T07:18:23.807Z,1021.31
2016-12-03T07:19:34.837Z,1021.29
2016-12-03T07:20:45.844Z,1021.31
2016-12-03T07:21:56.828Z,1021.29
2016-12-03T07:23:08.008Z,1021.31
2016-12-03T07:24:19.040Z,1021.29
2016-12-03T07:25:30.226Z,1021.38
2016-12-03T07:26:41.208Z,1021.37
2016-12-03T07:27:52.191Z,1021.45
2016-12-03T07:29:03.172Z,1021.49
2016-12-03T07:30:14.199Z,1021.48
2016-12-03T07:31:25.179Z,1021.45
2016-12-03T07:32:36.161Z,1021.44
2016-12-03T07:33:47.135Z,1021.48
2016-12-03T07:34:58.110Z,1021.45
2016-12-03T07:36:09.142Z,1021.45
2016-12-03T07:37:20.322Z,1021.47
2016-12-03T07:38:31.294Z,1021.48
2016-12-03T07:39:42.274Z,1021.47
2016-12-03T07:40:53.244Z,1021.52
2016-12-03T07:42:04.274Z,1021.54
2016-12-03T07:43:15.464Z,1021.54
2016-12-03T07:44:26.656Z,1021.58
2016-12-03T07:45:37.834Z,1021.6
2016-12-03T07:46:49.018Z,1021.61
2016-12-03T07:48:00.250Z,1021.6
2016-12-03T07:49:11.431Z,1021.57
2016-12-03T07:50:22.410Z,1021.58
2016-12-03T07:51:33.630Z,1021.6
2016-12-03T07:52:44.611Z,1021.65
2016-12-03T07:53:55.669Z,1021.59
2016-12-03T07:55:06.884Z,1021.67
2016-12-03T07:56:17.866Z,1021.65
2016-12-03T07:57:28.844Z,1021.74
2016-12-03T07:58:39.821Z,1021.72
2016-12-03T07:59:50.861Z,1021.7
2016-12-03T08:01:01.843Z,1021.71
2016-12-03T08:02:12.826Z,1021.67
2016-12-03T08:03:24.014Z,1021.72
2016-12-03T08:04:34.994Z,1021.7
2016-12-03T08:05:46.020Z,1021.64
2016-12-03T08:06:57.007Z,1021.67
2016-12-03T08:08:07.985Z,1021.71
2016-12-03T08:09:19.165Z,1021.69
2016-12-03T08:10:30.345Z,1021.71
2016-12-03T08:11:41.381Z,1021.8
2016-12-03T08:12:52.368Z,1021.8
2016-12-03T08:14:03.350Z,1021.84
2016-12-03T08:15:14.329Z,1021.89
2016-12-03T08:16:25.297Z,1021.91
2016-12-03T08:17:36.328Z,1021.93
2016-12-03T08:18:47.311Z,1021.88
2016-12-03T08:19:58.284Z,1021.91
2016-12-03T08:21:09.270Z,1021.94
2016-12-03T08:22:20.449Z,1021.99
2016-12-03T08:23:31.479Z,1021.99
2016-12-03T08:24:42.483Z,1021.99
2016-12-03T08:25:53.669Z,1021.94
2016-12-03T08:27:04.651Z,1021.93
2016-12-03T08:28:15.639Z,1021.97
2016-12-03T08:29:26.875Z,1021.98
2016-12-03T08:30:38.261Z,1022.03
2016-12-03T08:31:49.245Z,1022.02
2016-12-03T08:33:00.423Z,1022.04
2016-12-03T08:34:11.401Z,1022.02
2016-12-03T08:35:22.430Z,1022.07
2016-12-03T08:36:33.415Z,1022.09
2016-12-03T08:37:44.428Z,1022.12
2016-12-03T08:38:55.407Z,1022.12
2016-12-03T08:40:06.386Z,1022.14
2016-12-03T08:41:17.415Z,1022.09
2016-12-03T08:42:28.390Z,1022.11
2016-12-03T08:43:39.574Z,1022.15
2016-12-03T08:44:50.545Z,1022.15
2016-12-03T08:46:01.734Z,1022.14
2016-12-03T08:47:12.792Z,1022.15
2016-12-03T08:48:23.775Z,1022.18
2016-12-03T08:49:34.751Z,1022.19
2016-12-03T08:50:45.932Z,1022.22
2016-12-03T08:51:56.913Z,1022.22
2016-12-03T08:53:07.938Z,1022.2
2016-12-03T08:54:18.917Z,1022.19
2016-12-03T08:55:29.897Z,1022.21
2016-12-03T08:56:40.881Z,1022.25
2016-12-03T08:57:51.864Z,1022.23
2016-12-03T08:59:02.902Z,1022.2
2016-12-03T09:00:13.879Z,1022.22
2016-12-03T09:01:24.891Z,1022.22
2016-12-03T09:02:36.078Z,1022.26
2016-12-03T09:03:47.073Z,1022.3
2016-12-03T09:04:58.127Z,1022.34
2016-12-03T09:06:09.122Z,1022.41
2016-12-03T09:07:20.512Z,1022.35
2016-12-03T09:08:31.492Z,1022.33
2016-12-03T09:09:42.470Z,1022.37
2016-12-03T09:10:53.495Z,1022.34
2016-12-03T09:12:04.476Z,1022.32
2016-12-03T09:13:15.659Z,1022.26
2016-12-03T09:14:26.638Z,1022.28
2016-12-03T09:15:37.617Z,1022.3
2016-12-03T09:16:48.654Z,1022.29
2016-12-03T09:17:59.643Z,1022.29
2016-12-03T09:19:10.631Z,1022.27
2016-12-03T09:20:21.609Z,1022.32
2016-12-03T09:21:32.597Z,1022.37
2016-12-03T09:22:43.630Z,1022.43
2016-12-03T09:23:54.618Z,1022.42
2016-12-03T09:25:05.799Z,1022.39
2016-12-03T09:26:16.788Z,1022.37
2016-12-03T09:27:27.773Z,1022.34
2016-12-03T09:28:38.805Z,1022.37
2016-12-03T09:29:49.806Z,1022.45
2016-12-03T09:31:00.782Z,1022.48
2016-12-03T09:32:11.758Z,1022.46
2016-12-03T09:33:22.733Z,1022.47
2016-12-03T09:34:33.769Z,1022.48
2016-12-03T09:35:44.759Z,1022.52
2016-12-03T09:36:55.744Z,1022.56
2016-12-03T09:38:06.736Z,1022.58
2016-12-03T09:39:17.952Z,1022.6
2016-12-03T09:40:28.988Z,1022.52
2016-12-03T09:41:39.980Z,1022.52
2016-12-03T09:42:50.973Z,1022.55
2016-12-03T09:44:01.951Z,1022.59
2016-12-03T09:45:12.939Z,1022.55
2016-12-03T09:46:23.980Z,1022.57
2016-12-03T09:47:34.961Z,1022.55
2016-12-03T09:48:46.348Z,1022.52
2016-12-03T09:49:57.352Z,1022.54
2016-12-03T09:51:08.539Z,1022.52
2016-12-03T09:52:19.572Z,1022.52
2016-12-03T09:53:30.770Z,1022.49
2016-12-03T09:54:41.752Z,1022.54
2016-12-03T09:55:52.942Z,1022.54
2016-12-03T09:57:03.931Z,1022.55
2016-12-03T09:58:14.969Z,1022.48
2016-12-03T09:59:25.976Z,1022.48
2016-12-03T10:00:36.959Z,1022.47
2016-12-03T10:01:47.950Z,1022.51
2016-12-03T10:02:58.935Z,1022.48
2016-12-03T10:04:09.967Z,1022.48
2016-12-03T10:05:20.951Z,1022.48
2016-12-03T10:06:32.135Z,1022.46
2016-12-03T10:07:43.318Z,1022.48
2016-12-03T10:08:54.513Z,1022.51
2016-12-03T10:10:05.548Z,1022.5
2016-12-03T10:11:16.534Z,1022.49
2016-12-03T10:12:27.744Z,1022.49
2016-12-03T10:13:38.932Z,1022.49
2016-12-03T10:14:49.917Z,1022.55
2016-12-03T10:16:00.946Z,1022.51
2016-12-03T10:17:11.937Z,1022.47
2016-12-03T10:18:22.921Z,1022.46
2016-12-03T10:19:33.914Z,1022.45
2016-12-03T10:20:44.895Z,1022.44
2016-12-03T10:21:55.943Z,1022.45
2016-12-03T10:23:06.938Z,1022.48
2016-12-03T10:24:17.929Z,1022.5
2016-12-03T10:25:28.910Z,1022.51
2016-12-03T10:26:40.102Z,1022.5
2016-12-03T10:27:51.140Z,1022.45
2016-12-03T10:29:02.124Z,1022.44
2016-12-03T10:30:13.522Z,1022.49
2016-12-03T10:31:24.512Z,1022.53
2016-12-03T10:32:35.500Z,1022.58
2016-12-03T10:33:46.542Z,1022.57
2016-12-03T10:34:57.757Z,1022.51
2016-12-03T10:36:08.757Z,1022.47
2016-12-03T10:37:19.746Z,1022.42
2016-12-03T10:38:30.718Z,1022.43
2016-12-03T10:39:42.154Z,1022.42
2016-12-03T10:40:53.145Z,1022.43
2016-12-03T10:42:04.126Z,1022.42
2016-12-03T10:43:15.126Z,1022.47
2016-12-03T10:44:26.317Z,1022.5
2016-12-03T10:45:37.561Z,1022.48
2016-12-03T10:46:48.534Z,1022.48
2016-12-03T10:47:59.517Z,1022.45
2016-12-03T10:49:10.498Z,1022.46
2016-12-03T10:50:21.692Z,1022.45
2016-12-03T10:51:32.923Z,1022.47
2016-12-03T10:52:43.912Z,1022.48
2016-12-03T10:53:54.895Z,1022.51
2016-12-03T10:55:05.886Z,1022.47
2016-12-03T10:56:16.881Z,1022.42
2016-12-03T10:57:27.917Z,1022.43
2016-12-03T10:58:38.900Z,1022.46
2016-12-03T10:59:49.890Z,1022.38
2016-12-03T11:01:00.877Z,1022.35
2016-12-03T11:02:11.860Z,1022.3
2016-12-03T11:03:22.925Z,1022.32
2016-12-03T11:04:33.915Z,1022.23
2016-12-03T11:05:44.903Z,1022.23
2016-12-03T11:06:55.892Z,1022.26
2016-12-03T11:08:06.875Z,1022.28
2016-12-03T11:09:17.904Z,1022.26
2016-12-03T11:10:28.891Z,1022.27
2016-12-03T11:11:40.079Z,1022.23
2016-12-03T11:12:51.061Z,1022.19
2016-12-03T11:14:02.245Z,1022.17
2016-12-03T11:15:13.276Z,1022.21
2016-12-03T11:16:24.249Z,1022.22
2016-12-03T11:17:35.240Z,1022.21
2016-12-03T11:18:46.217Z,1022.19
2016-12-03T11:19:57.208Z,1022.18
2016-12-03T11:21:08.256Z,1022.2
2016-12-03T11:22:19.245Z,1022.18
2016-12-03T11:23:30.263Z,1022.21
2016-12-03T11:24:41.255Z,1022.16
2016-12-03T11:25:52.247Z,1022.19
2016-12-03T11:27:03.285Z,1022.16
2016-12-03T11:28:14.277Z,1022.12
2016-12-03T11:29:25.259Z,1022.11
2016-12-03T11:30:36.241Z,1022.15
2016-12-03T11:31:47.225Z,1022.13
2016-12-03T11:32:58.269Z,1022.11
2016-12-03T11:34:09.257Z,1022.12
2016-12-03T11:35:20.449Z,1022.13
2016-12-03T11:36:31.433Z,1022.1
2016-12-03T11:37:42.461Z,1022.04
2016-12-03T11:38:53.501Z,1022.03
2016-12-03T11:40:04.487Z,1022.07
2016-12-03T11:41:15.476Z,1022.09
2016-12-03T11:42:26.465Z,1022.02
2016-12-03T11:43:37.453Z,1022.05
2016-12-03T11:44:48.488Z,1022.06
2016-12-03T11:45:59.483Z,1022.05
2016-12-03T11:47:10.673Z,1022.05
2016-12-03T11:48:21.859Z,1022.04
2016-12-03T11:49:32.845Z,1022.06
2016-12-03T11:50:44.111Z,1022.08
2016-12-03T11:51:55.104Z,1022.07
2016-12-03T11:53:06.087Z,1022.08
2016-12-03T11:54:17.274Z,1022.07
2016-12-03T11:55:28.259Z,1022.07
2016-12-03T11:56:39.304Z,1022.05
2016-12-03T11:57:50.296Z,1022.03
2016-12-03T11:59:01.333Z,1022.04
2016-12-03T12:00:12.330Z,1022.07
2016-12-03T12:01:23.318Z,1022.05
2016-12-03T12:02:34.356Z,1022.06
2016-12-03T12:03:45.344Z,1022.06
2016-12-03T12:04:56.329Z,1022.06
2016-12-03T12:06:07.318Z,1022.09
2016-12-03T12:07:18.307Z,1022.09
2016-12-03T12:08:29.340Z,1022.08
2016-12-03T12:09:40.327Z,1022.05
2016-12-03T12:10:51.324Z,1022.02
2016-12-03T12:12:02.313Z,1022.02
2016-12-03T12:13:13.534Z,1022.08
2016-12-03T12:14:24.580Z,1022.05
2016-12-03T12:15:35.579Z,1022.02
2016-12-03T12:16:46.769Z,1022.04
2016-12-03T12:17:57.957Z,1022.02
2016-12-03T12:19:08.951Z,1022.02
2016-12-03T12:20:19.998Z,1022.05
2016-12-03T12:21:30.989Z,1022.03
2016-12-03T12:22:41.976Z,1022.02
2016-12-03T12:23:52.992Z,1022.05
2016-12-03T12:25:03.983Z,1022.04
2016-12-03T12:26:15.020Z,1022
2016-12-03T12:27:26.218Z,1021.97
2016-12-03T12:28:37.206Z,1021.97
2016-12-03T12:29:48.212Z,1021.98
2016-12-03T12:30:59.398Z,1021.92
2016-12-03T12:32:10.438Z,1021.95
2016-12-03T12:33:21.423Z,1022.01
2016-12-03T12:34:32.614Z,1022.01
2016-12-03T12:35:43.606Z,1021.96
2016-12-03T12:36:54.601Z,1022
2016-12-03T12:38:05.633Z,1021.97
2016-12-03T12:39:16.622Z,1021.98
2016-12-03T12:40:27.606Z,1021.9
2016-12-03T12:41:38.802Z,1021.93
2016-12-03T12:42:49.990Z,1021.89
2016-12-03T12:44:01.027Z,1021.9
2016-12-03T12:45:12.017Z,1021.9
2016-12-03T12:46:23.006Z,1021.91
2016-12-03T12:47:33.989Z,1021.9
2016-12-03T12:48:44.982Z,1021.89
2016-12-03T12:49:56.022Z,1021.9
2016-12-03T12:51:07.014Z,1021.9
2016-12-03T12:52:18.016Z,1021.87
2016-12-03T12:53:29.028Z,1021.85
2016-12-03T12:54:40.012Z,1021.87
2016-12-03T12:55:51.048Z,1021.88
2016-12-03T12:57:02.035Z,1021.86
2016-12-03T12:58:13.030Z,1021.9
2016-12-03T12:59:24.015Z,1021.87
2016-12-03T13:00:35.000Z,1021.9
2016-12-03T13:01:46.239Z,1021.9
2016-12-03T13:02:57.226Z,1021.83
2016-12-03T13:04:08.213Z,1021.85
2016-12-03T13:05:19.205Z,1021.87
2016-12-03T13:06:30.220Z,1021.86
2016-12-03T13:07:41.271Z,1021.89
2016-12-03T13:08:52.259Z,1021.89
2016-12-03T13:10:03.249Z,1021.91
2016-12-03T13:11:14.440Z,1021.86
2016-12-03T13:12:25.478Z,1021.87
2016-12-03T13:13:36.467Z,1021.83
2016-12-03T13:14:47.665Z,1021.8
2016-12-03T13:15:58.653Z,1021.81
2016-12-03T13:17:09.644Z,1021.8
2016-12-03T13:18:20.709Z,1021.76
2016-12-03T13:19:31.701Z,1021.79
2016-12-03T13:20:42.685Z,1021.73
2016-12-03T13:21:53.672Z,1021.77
2016-12-03T13:23:04.692Z,1021.77
2016-12-03T13:24:15.725Z,1021.74
2016-12-03T13:25:26.708Z,1021.75
2016-12-03T13:26:37.697Z,1021.74
2016-12-03T13:27:48.681Z,1021.74
2016-12-03T13:28:59.876Z,1021.73
2016-12-03T13:30:10.921Z,1021.74
2016-12-03T13:31:21.895Z,1021.77
2016-12-03T13:32:33.080Z,1021.75
2016-12-03T13:33:44.076Z,1021.73
2016-12-03T13:34:55.067Z,1021.72
2016-12-03T13:36:06.099Z,1021.74
2016-12-03T13:37:17.087Z,1021.76
2016-12-03T13:38:28.075Z,1021.76
2016-12-03T13:39:39.083Z,1021.73
2016-12-03T13:40:50.069Z,1021.73
2016-12-03T13:42:01.136Z,1021.72
2016-12-03T13:43:12.317Z,1021.74
2016-12-03T13:44:23.300Z,1021.73
2016-12-03T13:45:34.280Z,1021.72
2016-12-03T13:46:45.476Z,1021.73
2016-12-03T13:47:56.509Z,1021.77
2016-12-03T13:49:07.705Z,1021.75
2016-12-03T13:50:18.699Z,1021.74
2016-12-03T13:51:29.684Z,1021.75
2016-12-03T13:52:40.672Z,1021.76
2016-12-03T13:53:51.706Z,1021.73
2016-12-03T13:55:02.691Z,1021.75
2016-12-03T13:56:14.080Z,1021.74
2016-12-03T13:57:25.067Z,1021.78
2016-12-03T13:58:36.054Z,1021.75
2016-12-03T13:59:47.100Z,1021.79
2016-12-03T14:00:58.093Z,1021.81
2016-12-03T14:02:09.275Z,1021.82
2016-12-03T14:03:20.263Z,1021.85
2016-12-03T14:04:31.456Z,1021.87
2016-12-03T14:05:42.497Z,1021.87
2016-12-03T14:06:53.484Z,1021.89
2016-12-03T14:08:04.472Z,1021.89
2016-12-03T14:09:15.462Z,1021.91
2016-12-03T14:10:26.451Z,1021.91
2016-12-03T14:11:37.693Z,1021.94
2016-12-03T14:12:48.673Z,1021.91
2016-12-03T14:13:59.666Z,1021.9
2016-12-03T14:15:10.657Z,1021.93
2016-12-03T14:16:21.839Z,1021.92
2016-12-03T14:17:32.872Z,1021.94
2016-12-03T14:18:43.863Z,1021.99
2016-12-03T14:19:54.850Z,1022
2016-12-03T14:21:05.830Z,1022
2016-12-03T14:22:16.824Z,1022